Happy Valentine's Day! 

Flight Track Log - Related Links

Times and Time Zones

All times are in EDT time to prevent confusion due to time zone crossing. See the N509QS flight status page for this flight to view local times or setup timezone preferences in your user account.


Time Position Orientation Groundspeed Altitude Reporting Facility
EDT Latitude Longitude Course Direction KTS MPH feet Rate Location/Type
Sun 12:48:42 PM 41.7264 -75.3594 315° West 354 407 10,000  Level New York Center
Sun 12:49:43 PM 41.7911 -75.4642 310° West 380 437 10,000 1,279 Level New York Center
Sun 12:50:44 PM 41.8536 -75.5689 309° West 374 430 12,600 2,874 Climbing New York Center
Sun 12:51:42 PM 41.9142 -75.6650 310° West 373 429 15,700 1,729 Climbing New York Center
Sun 12:52:42 PM 41.9922 -75.7908 310° West 384 442 16,000 149 Climbing New York Center
Sun 12:53:43 PM 42.0486 -75.8844 309° West 396 456 16,000  Level New York Center
Sun 12:54:00 PM 42.0149 -75.9865 315° West  Level FlightAware Approximate
Sun 12:54:44 PM 42.1244 -76.0078 310° West 396 456 16,000  Level New York Center
Sun 12:58:00 PM 42.3611 -76.3958 310° West 395 455 16,000 23 Level Cleveland Center
Sun 12:59:00 PM 42.4300 -76.5094 309° West 395 455 16,100 50 Climbing Cleveland Center
Sun 01:00:00 PM 42.5028 -76.6286 310° West 400 460 16,100  Level Cleveland Center
Sun 01:01:00 PM 42.5714 -76.7428 309° West 400 460 16,100 -150 Level Cleveland Center
Sun 01:02:00 PM 42.6375 -76.8544 309° West 400 460 15,800 -1,050 Descending Cleveland Center
Sun 01:03:00 PM 42.7081 -76.9719 309° West 405 466 14,000 -1,867 Descending Cleveland Center
Sun 01:05:00 PM 42.8431 -77.1625 314° West 377 434 10,200 -1,833 Descending Cleveland Center
Sun 01:06:00 PM 42.9133 -77.2125 332° Northwest 321 369 8,500 -1,850 Descending Cleveland Center
Sun 01:07:00 PM 42.9794 -77.2628 331° Northwest 289 333 6,500 -1,250 Descending Cleveland Center
Sun 01:08:00 PM 43.0456 -77.3133 331° Northwest 275 316 6,000 -450 Descending Cleveland Center
Sun 01:09:00 PM 43.0994 -77.3786 319° Northwest 270 311 5,600 -900 Descending Cleveland Center
Sun 01:10:00 PM 43.1328 -77.4536 301° West 242 278 4,200 -1,300 Descending Cleveland Center
Sun 01:11:00 PM 43.1594 -77.5150 301° West 216 249 3,000 -1,000 Descending Cleveland Center
Sun 01:12:00 PM 43.1797 -77.5767 294° West 193 222 2,200 -671 Descending Cleveland Center
Sun 01:13:23 PM 43.1628 -77.6400 250° West 117 135 1,400 -576 Descending Cleveland Center
Sun 01:14:05 PM 43.1425 -77.6611 217° Southwest 121 139 1,000 -571 Descending Cleveland Center
Sun 01:16:00 PM 43.1191 -77.6719 199° South  Level Estimated
Sun 01:23:00 PM 43.1191 -77.6719 14° North  Level Estimated

Login

Don't have an account? Register now (free) for customized features, flight alerts, and more!